createdAt,value
2019-03-13T00:03:34.412Z,79.70
2019-03-13T00:33:38.507Z,74.50
2019-03-13T01:03:43.880Z,70.60
2019-03-13T01:33:48.094Z,69.90
2019-03-13T02:03:52.133Z,65.00
2019-03-13T02:33:56.232Z,65.30
2019-03-13T03:04:01.767Z,65.70
2019-03-13T03:34:05.535Z,65.70
2019-03-13T04:04:09.287Z,61.90
2019-03-13T04:34:13.251Z,62.30
2019-03-13T05:04:17.050Z,60.40
2019-03-13T05:34:20.917Z,62.10
2019-03-13T06:04:24.732Z,63.30
2019-03-13T06:34:29.548Z,72.20
2019-03-13T07:04:35.019Z,79.50
2019-03-13T07:34:43.419Z,81.90
2019-03-13T08:04:47.431Z,82.80
2019-03-13T08:34:52.771Z,78.80
2019-03-13T09:05:06.961Z,57.10
2019-03-13T09:35:12.433Z,69.30
2019-03-13T10:05:18.038Z,42.60
2019-03-13T10:35:23.474Z,49.80
2019-03-13T11:05:41.180Z,44.70
2019-03-13T11:36:03.038Z,48.10
2019-03-13T12:06:14.165Z,47.00
2019-03-13T12:36:35.693Z,46.00
2019-03-13T13:06:47.011Z,45.70
2019-03-13T13:36:51.070Z,46.70
2019-03-13T14:06:55.034Z,45.10
2019-03-13T14:36:58.799Z,44.30
2019-03-13T15:07:02.776Z,45.80
2019-03-13T15:37:06.788Z,44.00
2019-03-13T16:07:10.769Z,47.60
2019-03-13T16:37:14.571Z,47.50
2019-03-13T17:07:18.607Z,49.00
2019-03-13T17:37:22.355Z,50.80
2019-03-13T18:07:26.295Z,57.00
2019-03-13T18:37:30.059Z,61.10
2019-03-13T19:07:34.941Z,55.50
2019-03-13T19:37:38.979Z,59.20
2019-03-13T20:07:42.975Z,70.80
2019-03-13T20:37:47.609Z,75.50
2019-03-13T21:07:51.372Z,68.40
2019-03-13T21:37:55.165Z,64.50
2019-03-13T22:07:59.065Z,62.50
2019-03-13T22:38:02.844Z,63.30
2019-03-13T23:08:06.622Z,63.20
2019-03-13T23:38:10.768Z,69.80
